sensor_id;sensor_type;location;lat;lon;timestamp;temperature;humidity
12229;DHT22;6177;52.402;9.800;2022-08-18T00:00:29;20.50;81.20
12229;DHT22;6177;52.402;9.800;2022-08-18T00:03:14;20.50;81.30
12229;DHT22;6177;52.402;9.800;2022-08-18T00:05:59;20.50;81.30
12229;DHT22;6177;52.402;9.800;2022-08-18T00:08:44;20.60;81.10
12229;DHT22;6177;52.402;9.800;2022-08-18T00:11:31;20.60;80.90
12229;DHT22;6177;52.402;9.800;2022-08-18T00:14:18;20.70;80.60
12229;DHT22;6177;52.402;9.800;2022-08-18T00:17:03;20.70;80.30
12229;DHT22;6177;52.402;9.800;2022-08-18T00:19:48;20.80;80.20
12229;DHT22;6177;52.402;9.800;2022-08-18T00:22:32;20.80;80.10
12229;DHT22;6177;52.402;9.800;2022-08-18T00:25:18;20.80;80.00
12229;DHT22;6177;52.402;9.800;2022-08-18T00:28:04;20.90;80.00
12229;DHT22;6177;52.402;9.800;2022-08-18T00:30:48;20.90;80.00
12229;DHT22;6177;52.402;9.800;2022-08-18T00:33:33;20.80;80.10
12229;DHT22;6177;52.402;9.800;2022-08-18T00:36:18;20.80;80.20
12229;DHT22;6177;52.402;9.800;2022-08-18T00:39:02;20.80;80.20
12229;DHT22;6177;52.402;9.800;2022-08-18T00:41:47;20.90;80.40
12229;DHT22;6177;52.402;9.800;2022-08-18T00:44:31;20.90;80.50
12229;DHT22;6177;52.402;9.800;2022-08-18T00:47:17;20.80;80.70
12229;DHT22;6177;52.402;9.800;2022-08-18T00:50:02;20.90;80.90
12229;DHT22;6177;52.402;9.800;2022-08-18T00:52:59;20.80;81.00
12229;DHT22;6177;52.402;9.800;2022-08-18T00:55:45;20.80;81.00
12229;DHT22;6177;52.402;9.800;2022-08-18T01:01:49;20.80;81.60
12229;DHT22;6177;52.402;9.800;2022-08-18T01:04:49;20.80;81.60
12229;DHT22;6177;52.402;9.800;2022-08-18T01:07:41;20.70;81.60
12229;DHT22;6177;52.402;9.800;2022-08-18T01:10:32;20.70;82.00
12229;DHT22;6177;52.402;9.800;2022-08-18T01:13:17;20.60;82.20
12229;DHT22;6177;52.402;9.800;2022-08-18T01:16:02;20.60;82.50
12229;DHT22;6177;52.402;9.800;2022-08-18T01:19:07;20.50;82.70
12229;DHT22;6177;52.402;9.800;2022-08-18T01:25:06;20.40;83.00
12229;DHT22;6177;52.402;9.800;2022-08-18T01:28:10;20.40;83.40
12229;DHT22;6177;52.402;9.800;2022-08-18T01:30:56;20.40;83.70
12229;DHT22;6177;52.402;9.800;2022-08-18T01:33:42;20.40;83.90
12229;DHT22;6177;52.402;9.800;2022-08-18T01:36:27;20.40;84.10
12229;DHT22;6177;52.402;9.800;2022-08-18T01:39:13;20.40;84.30
12229;DHT22;6177;52.402;9.800;2022-08-18T01:41:58;20.30;84.50
12229;DHT22;6177;52.402;9.800;2022-08-18T01:44:47;20.40;84.60
12229;DHT22;6177;52.402;9.800;2022-08-18T01:47:35;20.30;84.70
12229;DHT22;6177;52.402;9.800;2022-08-18T01:50:19;20.30;85.00
12229;DHT22;6177;52.402;9.800;2022-08-18T01:53:04;20.30;85.20
12229;DHT22;6177;52.402;9.800;2022-08-18T01:55:50;20.30;85.50
12229;DHT22;6177;52.402;9.800;2022-08-18T01:58:35;20.30;85.70
12229;DHT22;6177;52.402;9.800;2022-08-18T02:01:23;20.40;85.80
12229;DHT22;6177;52.402;9.800;2022-08-18T02:04:11;20.50;85.80
12229;DHT22;6177;52.402;9.800;2022-08-18T02:06:55;20.50;85.90
12229;DHT22;6177;52.402;9.800;2022-08-18T02:09:42;20.50;86.10
12229;DHT22;6177;52.402;9.800;2022-08-18T02:12:27;20.50;86.10
12229;DHT22;6177;52.402;9.800;2022-08-18T02:15:12;20.50;86.30
12229;DHT22;6177;52.402;9.800;2022-08-18T02:17:56;20.50;86.30
12229;DHT22;6177;52.402;9.800;2022-08-18T02:20:41;20.40;86.40
12229;DHT22;6177;52.402;9.800;2022-08-18T02:23:26;20.40;86.60
12229;DHT22;6177;52.402;9.800;2022-08-18T02:26:14;20.50;86.80
12229;DHT22;6177;52.402;9.800;2022-08-18T02:28:58;20.50;86.90
12229;DHT22;6177;52.402;9.800;2022-08-18T02:31:43;20.50;87.00
12229;DHT22;6177;52.402;9.800;2022-08-18T02:34:28;20.50;87.30
12229;DHT22;6177;52.402;9.800;2022-08-18T02:37:12;20.50;87.40
12229;DHT22;6177;52.402;9.800;2022-08-18T02:39:57;20.40;87.50
12229;DHT22;6177;52.402;9.800;2022-08-18T02:42:43;20.40;87.70
12229;DHT22;6177;52.402;9.800;2022-08-18T02:45:28;20.40;87.90
12229;DHT22;6177;52.402;9.800;2022-08-18T02:48:12;20.40;88.00
12229;DHT22;6177;52.402;9.800;2022-08-18T02:51:05;20.40;88.00
12229;DHT22;6177;52.402;9.800;2022-08-18T02:53:50;20.30;88.10
12229;DHT22;6177;52.402;9.800;2022-08-18T02:56:36;20.20;88.30
12229;DHT22;6177;52.402;9.800;2022-08-18T02:59:22;20.20;88.20
12229;DHT22;6177;52.402;9.800;2022-08-18T03:02:08;20.20;88.20
12229;DHT22;6177;52.402;9.800;2022-08-18T03:04:52;20.20;88.30
12229;DHT22;6177;52.402;9.800;2022-08-18T03:07:37;20.20;88.30
12229;DHT22;6177;52.402;9.800;2022-08-18T03:10:22;20.10;88.40
12229;DHT22;6177;52.402;9.800;2022-08-18T03:13:06;20.10;88.50
12229;DHT22;6177;52.402;9.800;2022-08-18T03:15:51;20.20;88.60
12229;DHT22;6177;52.402;9.800;2022-08-18T03:18:36;20.10;88.80
12229;DHT22;6177;52.402;9.800;2022-08-18T03:21:24;20.00;89.20
12229;DHT22;6177;52.402;9.800;2022-08-18T03:24:09;20.00;89.50
12229;DHT22;6177;52.402;9.800;2022-08-18T03:26:55;20.00;89.70
12229;DHT22;6177;52.402;9.800;2022-08-18T03:29:40;19.90;90.00
12229;DHT22;6177;52.402;9.800;2022-08-18T03:32:25;19.90;90.10
12229;DHT22;6177;52.402;9.800;2022-08-18T03:35:10;19.90;90.20
12229;DHT22;6177;52.402;9.800;2022-08-18T03:37:57;19.80;90.10
12229;DHT22;6177;52.402;9.800;2022-08-18T03:40:49;19.80;90.10
12229;DHT22;6177;52.402;9.800;2022-08-18T03:43:34;19.90;90.00
12229;DHT22;6177;52.402;9.800;2022-08-18T03:46:19;19.80;90.00
12229;DHT22;6177;52.402;9.800;2022-08-18T03:49:05;19.80;90.00
12229;DHT22;6177;52.402;9.800;2022-08-18T03:51:50;19.70;89.90
12229;DHT22;6177;52.402;9.800;2022-08-18T03:54:34;19.70;89.90
12229;DHT22;6177;52.402;9.800;2022-08-18T03:57:19;19.70;89.80
12229;DHT22;6177;52.402;9.800;2022-08-18T04:00:04;19.70;89.80
12229;DHT22;6177;52.402;9.800;2022-08-18T04:02:50;19.60;90.00
12229;DHT22;6177;52.402;9.800;2022-08-18T04:05:39;19.60;90.10
12229;DHT22;6177;52.402;9.800;2022-08-18T04:08:23;19.60;90.00
12229;DHT22;6177;52.402;9.800;2022-08-18T04:11:09;19.60;90.00
12229;DHT22;6177;52.402;9.800;2022-08-18T04:13:55;19.60;90.20
12229;DHT22;6177;52.402;9.800;2022-08-18T04:16:43;19.60;90.00
12229;DHT22;6177;52.402;9.800;2022-08-18T04:19:28;19.60;90.00
12229;DHT22;6177;52.402;9.800;2022-08-18T04:22:14;19.50;90.00
12229;DHT22;6177;52.402;9.800;2022-08-18T04:24:59;19.50;90.20
12229;DHT22;6177;52.402;9.800;2022-08-18T04:27:44;19.50;90.10
12229;DHT22;6177;52.402;9.800;2022-08-18T04:30:29;19.50;90.10
12229;DHT22;6177;52.402;9.800;2022-08-18T04:33:13;19.50;90.10
12229;DHT22;6177;52.402;9.800;2022-08-18T04:35:58;19.50;90.10
12229;DHT22;6177;52.402;9.800;2022-08-18T04:38:45;19.60;90.10
12229;DHT22;6177;52.402;9.800;2022-08-18T04:41:30;19.60;90.10
12229;DHT22;6177;52.402;9.800;2022-08-18T04:44:15;19.50;90.10
12229;DHT22;6177;52.402;9.800;2022-08-18T04:47:01;19.50;90.10
12229;DHT22;6177;52.402;9.800;2022-08-18T04:49:46;19.60;90.00
12229;DHT22;6177;52.402;9.800;2022-08-18T04:52:30;19.60;90.00
12229;DHT22;6177;52.402;9.800;2022-08-18T04:55:33;19.60;89.80
12229;DHT22;6177;52.402;9.800;2022-08-18T04:58:19;19.60;89.70
12229;DHT22;6177;52.402;9.800;2022-08-18T05:01:03;19.60;89.80
12229;DHT22;6177;52.402;9.800;2022-08-18T05:03:50;19.60;89.80
12229;DHT22;6177;52.402;9.800;2022-08-18T05:06:35;19.70;89.90
12229;DHT22;6177;52.402;9.800;2022-08-18T05:09:20;19.70;89.70
12229;DHT22;6177;52.402;9.800;2022-08-18T05:12:06;19.70;89.80
12229;DHT22;6177;52.402;9.800;2022-08-18T05:14:51;19.80;89.70
12229;DHT22;6177;52.402;9.800;2022-08-18T05:17:37;19.90;89.50
12229;DHT22;6177;52.402;9.800;2022-08-18T05:20:23;19.90;89.40
12229;DHT22;6177;52.402;9.800;2022-08-18T05:23:08;20.10;88.70
12229;DHT22;6177;52.402;9.800;2022-08-18T05:26:00;20.20;88.40
12229;DHT22;6177;52.402;9.800;2022-08-18T05:28:49;20.20;88.10
12229;DHT22;6177;52.402;9.800;2022-08-18T05:31:33;20.30;88.00
12229;DHT22;6177;52.402;9.800;2022-08-18T05:34:21;20.40;87.60
12229;DHT22;6177;52.402;9.800;2022-08-18T05:37:34;20.40;87.30
12229;DHT22;6177;52.402;9.800;2022-08-18T05:40:22;20.40;87.20
12229;DHT22;6177;52.402;9.800;2022-08-18T05:43:09;20.40;87.10
12229;DHT22;6177;52.402;9.800;2022-08-18T05:45:54;20.40;87.10
12229;DHT22;6177;52.402;9.800;2022-08-18T05:48:40;20.50;86.90
12229;DHT22;6177;52.402;9.800;2022-08-18T05:51:34;20.60;86.80
12229;DHT22;6177;52.402;9.800;2022-08-18T05:54:22;20.60;86.60
12229;DHT22;6177;52.402;9.800;2022-08-18T05:57:29;20.70;86.40
12229;DHT22;6177;52.402;9.800;2022-08-18T06:00:16;20.80;86.30
12229;DHT22;6177;52.402;9.800;2022-08-18T06:03:24;20.90;85.80
12229;DHT22;6177;52.402;9.800;2022-08-18T06:06:17;21.00;85.10
12229;DHT22;6177;52.402;9.800;2022-08-18T06:09:13;21.00;85.00
12229;DHT22;6177;52.402;9.800;2022-08-18T06:12:14;21.10;85.00
12229;DHT22;6177;52.402;9.800;2022-08-18T06:27:18;21.10;84.70
12229;DHT22;6177;52.402;9.800;2022-08-18T06:30:28;21.10;84.70
12229;DHT22;6177;52.402;9.800;2022-08-18T06:33:47;21.00;85.00
12229;DHT22;6177;52.402;9.800;2022-08-18T06:39:44;21.10;85.40
12229;DHT22;6177;52.402;9.800;2022-08-18T06:42:29;21.20;85.50
12229;DHT22;6177;52.402;9.800;2022-08-18T06:45:14;21.20;85.20
12229;DHT22;6177;52.402;9.800;2022-08-18T06:48:19;21.40;84.20
12229;DHT22;6177;52.402;9.800;2022-08-18T06:51:07;21.50;84.30
12229;DHT22;6177;52.402;9.800;2022-08-18T06:59:31;21.80;82.30
12229;DHT22;6177;52.402;9.800;2022-08-18T07:02:21;21.80;82.20
12229;DHT22;6177;52.402;9.800;2022-08-18T07:05:16;21.80;82.20
12229;DHT22;6177;52.402;9.800;2022-08-18T07:08:08;21.80;82.40
12229;DHT22;6177;52.402;9.800;2022-08-18T07:10:53;21.80;82.40
12229;DHT22;6177;52.402;9.800;2022-08-18T07:13:40;21.90;82.00
12229;DHT22;6177;52.402;9.800;2022-08-18T07:19:15;22.00;81.00
12229;DHT22;6177;52.402;9.800;2022-08-18T07:22:10;22.00;81.00
12229;DHT22;6177;52.402;9.800;2022-08-18T07:24:57;22.00;81.30
12229;DHT22;6177;52.402;9.800;2022-08-18T07:27:46;21.90;81.20
12229;DHT22;6177;52.402;9.800;2022-08-18T07:30:37;21.80;81.20
12229;DHT22;6177;52.402;9.800;2022-08-18T07:33:23;21.70;81.60
12229;DHT22;6177;52.402;9.800;2022-08-18T07:36:10;21.80;81.70
12229;DHT22;6177;52.402;9.800;2022-08-18T07:39:14;21.70;81.90
12229;DHT22;6177;52.402;9.800;2022-08-18T07:42:10;21.80;81.20
12229;DHT22;6177;52.402;9.800;2022-08-18T07:48:32;21.90;80.60
12229;DHT22;6177;52.402;9.800;2022-08-18T07:54:27;21.90;80.80
12229;DHT22;6177;52.402;9.800;2022-08-18T08:00:33;21.90;80.50
12229;DHT22;6177;52.402;9.800;2022-08-18T08:16:35;21.90;79.30
12229;DHT22;6177;52.402;9.800;2022-08-18T08:19:09;22.00;78.80
12229;DHT22;6177;52.402;9.800;2022-08-18T08:22:04;22.10;79.00
12229;DHT22;6177;52.402;9.800;2022-08-18T08:30:52;22.80;77.00
12229;DHT22;6177;52.402;9.800;2022-08-18T08:33:56;22.90;76.40
12229;DHT22;6177;52.402;9.800;2022-08-18T08:36:45;22.90;75.80
12229;DHT22;6177;52.402;9.800;2022-08-18T08:42:45;23.10;74.70
12229;DHT22;6177;52.402;9.800;2022-08-18T08:45:38;23.20;74.30
12229;DHT22;6177;52.402;9.800;2022-08-18T08:48:30;23.20;74.30
12229;DHT22;6177;52.402;9.800;2022-08-18T08:51:30;23.40;74.10
12229;DHT22;6177;52.402;9.800;2022-08-18T08:54:36;23.60;73.90
12229;DHT22;6177;52.402;9.800;2022-08-18T08:57:28;23.80;73.00
12229;DHT22;6177;52.402;9.800;2022-08-18T09:00:15;23.90;72.80
12229;DHT22;6177;52.402;9.800;2022-08-18T09:21:38;24.10;70.50
12229;DHT22;6177;52.402;9.800;2022-08-18T09:24:29;24.00;70.70
12229;DHT22;6177;52.402;9.800;2022-08-18T09:30:03;24.10;71.20
12229;DHT22;6177;52.402;9.800;2022-08-18T09:33:13;24.20;70.80
12229;DHT22;6177;52.402;9.800;2022-08-18T09:39:34;24.20;70.70
12229;DHT22;6177;52.402;9.800;2022-08-18T09:42:42;24.20;70.50
12229;DHT22;6177;52.402;9.800;2022-08-18T09:48:33;24.30;70.70
12229;DHT22;6177;52.402;9.800;2022-08-18T09:51:33;24.40;70.30
12229;DHT22;6177;52.402;9.800;2022-08-18T09:54:24;24.50;70.20
12229;DHT22;6177;52.402;9.800;2022-08-18T10:05:36;24.80;69.60
12229;DHT22;6177;52.402;9.800;2022-08-18T10:08:31;24.90;69.10
12229;DHT22;6177;52.402;9.800;2022-08-18T10:11:26;24.90;69.10
12229;DHT22;6177;52.402;9.800;2022-08-18T10:29:47;25.00;68.90
12229;DHT22;6177;52.402;9.800;2022-08-18T10:32:40;25.10;68.40
12229;DHT22;6177;52.402;9.800;2022-08-18T10:35:57;25.00;68.30
12229;DHT22;6177;52.402;9.800;2022-08-18T10:38:44;25.10;68.60
12229;DHT22;6177;52.402;9.800;2022-08-18T10:41:33;25.30;68.20
12229;DHT22;6177;52.402;9.800;2022-08-18T10:44:21;25.50;67.90
12229;DHT22;6177;52.402;9.800;2022-08-18T10:47:06;25.60;67.60
12229;DHT22;6177;52.402;9.800;2022-08-18T10:49:52;25.70;67.50
12229;DHT22;6177;52.402;9.800;2022-08-18T10:58:52;26.00;66.40
12229;DHT22;6177;52.402;9.800;2022-08-18T11:02:04;26.00;66.40
12229;DHT22;6177;52.402;9.800;2022-08-18T11:04:46;25.90;66.50
12229;DHT22;6177;52.402;9.800;2022-08-18T11:07:33;26.10;66.50
12229;DHT22;6177;52.402;9.800;2022-08-18T11:10:22;26.20;66.10
12229;DHT22;6177;52.402;9.800;2022-08-18T11:13:31;26.30;65.60
12229;DHT22;6177;52.402;9.800;2022-08-18T11:16:35;26.30;65.50
12229;DHT22;6177;52.402;9.800;2022-08-18T11:19:22;26.40;65.60
12229;DHT22;6177;52.402;9.800;2022-08-18T11:22:29;26.40;65.30
12229;DHT22;6177;52.402;9.800;2022-08-18T11:28:17;26.60;64.60
12229;DHT22;6177;52.402;9.800;2022-08-18T11:31:01;26.70;64.60
12229;DHT22;6177;52.402;9.800;2022-08-18T11:33:47;26.70;64.20
12229;DHT22;6177;52.402;9.800;2022-08-18T11:36:31;26.80;63.80
12229;DHT22;6177;52.402;9.800;2022-08-18T11:39:17;26.80;63.50
12229;DHT22;6177;52.402;9.800;2022-08-18T11:42:02;26.90;63.30
12229;DHT22;6177;52.402;9.800;2022-08-18T11:44:46;27.00;62.90
12229;DHT22;6177;52.402;9.800;2022-08-18T11:47:32;27.00;63.10
12229;DHT22;6177;52.402;9.800;2022-08-18T11:50:26;27.10;63.20
12229;DHT22;6177;52.402;9.800;2022-08-18T11:56:36;27.40;62.70
12229;DHT22;6177;52.402;9.800;2022-08-18T12:02:20;27.60;61.50
12229;DHT22;6177;52.402;9.800;2022-08-18T12:05:06;27.60;60.10
12229;DHT22;6177;52.402;9.800;2022-08-18T12:07:51;27.70;59.00
12229;DHT22;6177;52.402;9.800;2022-08-18T12:10:35;27.90;58.60
12229;DHT22;6177;52.402;9.800;2022-08-18T12:13:22;28.10;56.70
12229;DHT22;6177;52.402;9.800;2022-08-18T12:16:29;28.50;54.80
12229;DHT22;6177;52.402;9.800;2022-08-18T12:19:15;28.90;53.30
12229;DHT22;6177;52.402;9.800;2022-08-18T12:22:00;29.00;51.50
12229;DHT22;6177;52.402;9.800;2022-08-18T12:24:46;29.20;50.90
12229;DHT22;6177;52.402;9.800;2022-08-18T12:27:30;29.40;50.50
12229;DHT22;6177;52.402;9.800;2022-08-18T12:30:15;29.70;49.20
12229;DHT22;6177;52.402;9.800;2022-08-18T12:33:01;30.40;48.70
12229;DHT22;6177;52.402;9.800;2022-08-18T12:35:46;30.90;47.40
12229;DHT22;6177;52.402;9.800;2022-08-18T12:38:32;31.20;46.70
12229;DHT22;6177;52.402;9.800;2022-08-18T12:41:16;31.40;45.80
12229;DHT22;6177;52.402;9.800;2022-08-18T12:44:01;32.00;45.10
12229;DHT22;6177;52.402;9.800;2022-08-18T12:46:46;32.10;44.60
12229;DHT22;6177;52.402;9.800;2022-08-18T12:49:31;32.00;44.40
12229;DHT22;6177;52.402;9.800;2022-08-18T12:52:17;31.70;44.00
12229;DHT22;6177;52.402;9.800;2022-08-18T12:55:01;31.00;44.30
12229;DHT22;6177;52.402;9.800;2022-08-18T12:57:46;30.40;46.00
12229;DHT22;6177;52.402;9.800;2022-08-18T13:00:31;30.20;45.90
12229;DHT22;6177;52.402;9.800;2022-08-18T13:03:18;29.70;46.40
12229;DHT22;6177;52.402;9.800;2022-08-18T13:06:02;29.60;46.60
12229;DHT22;6177;52.402;9.800;2022-08-18T13:08:49;29.70;46.20
12229;DHT22;6177;52.402;9.800;2022-08-18T13:11:33;29.90;46.90
12229;DHT22;6177;52.402;9.800;2022-08-18T13:14:18;30.60;46.20
12229;DHT22;6177;52.402;9.800;2022-08-18T13:17:02;31.30;45.00
12229;DHT22;6177;52.402;9.800;2022-08-18T13:19:47;32.00;43.40
12229;DHT22;6177;52.402;9.800;2022-08-18T13:22:31;31.80;42.50
12229;DHT22;6177;52.402;9.800;2022-08-18T13:25:16;31.80;41.90
12229;DHT22;6177;52.402;9.800;2022-08-18T13:28:02;32.20;41.90
12229;DHT22;6177;52.402;9.800;2022-08-18T13:30:47;32.60;41.70
12229;DHT22;6177;52.402;9.800;2022-08-18T13:33:32;33.10;41.30
12229;DHT22;6177;52.402;9.800;2022-08-18T13:36:17;33.10;40.60
12229;DHT22;6177;52.402;9.800;2022-08-18T13:39:01;32.60;39.90
12229;DHT22;6177;52.402;9.800;2022-08-18T13:41:47;32.20;40.80
12229;DHT22;6177;52.402;9.800;2022-08-18T13:44:32;32.40;41.50
12229;DHT22;6177;52.402;9.800;2022-08-18T13:47:16;32.50;41.20
12229;DHT22;6177;52.402;9.800;2022-08-18T13:50:01;32.40;40.70
12229;DHT22;6177;52.402;9.800;2022-08-18T13:52:45;32.40;40.50
12229;DHT22;6177;52.402;9.800;2022-08-18T13:55:29;32.50;40.00
12229;DHT22;6177;52.402;9.800;2022-08-18T13:58:14;32.50;40.60
12229;DHT22;6177;52.402;9.800;2022-08-18T14:01:00;32.40;41.30
12229;DHT22;6177;52.402;9.800;2022-08-18T14:03:45;32.40;41.50
12229;DHT22;6177;52.402;9.800;2022-08-18T14:06:30;32.20;41.50
12229;DHT22;6177;52.402;9.800;2022-08-18T14:09:14;31.90;41.90
12229;DHT22;6177;52.402;9.800;2022-08-18T14:11:58;31.70;42.00
12229;DHT22;6177;52.402;9.800;2022-08-18T14:14:42;31.30;42.80
12229;DHT22;6177;52.402;9.800;2022-08-18T14:17:27;31.00;42.80
12229;DHT22;6177;52.402;9.800;2022-08-18T14:20:12;30.60;43.30
12229;DHT22;6177;52.402;9.800;2022-08-18T14:23:15;30.30;44.20
12229;DHT22;6177;52.402;9.800;2022-08-18T14:26:18;30.20;44.80
12229;DHT22;6177;52.402;9.800;2022-08-18T14:29:21;30.00;44.30
12229;DHT22;6177;52.402;9.800;2022-08-18T14:32:05;29.80;44.60
12229;DHT22;6177;52.402;9.800;2022-08-18T14:34:50;29.90;45.00
12229;DHT22;6177;52.402;9.800;2022-08-18T14:37:35;29.90;44.70
12229;DHT22;6177;52.402;9.800;2022-08-18T14:40:20;30.30;44.70
12229;DHT22;6177;52.402;9.800;2022-08-18T14:43:04;30.50;44.30
12229;DHT22;6177;52.402;9.800;2022-08-18T14:45:49;30.40;44.00
12229;DHT22;6177;52.402;9.800;2022-08-18T14:48:34;30.30;44.40
12229;DHT22;6177;52.402;9.800;2022-08-18T14:51:20;30.10;44.70
12229;DHT22;6177;52.402;9.800;2022-08-18T14:54:05;29.80;44.70
12229;DHT22;6177;52.402;9.800;2022-08-18T14:56:50;29.50;44.70
12229;DHT22;6177;52.402;9.800;2022-08-18T14:59:34;29.20;45.60
12229;DHT22;6177;52.402;9.800;2022-08-18T15:02:19;29.30;46.20
12229;DHT22;6177;52.402;9.800;2022-08-18T15:05:05;29.10;46.00
12229;DHT22;6177;52.402;9.800;2022-08-18T15:07:50;29.10;46.10
12229;DHT22;6177;52.402;9.800;2022-08-18T15:10:35;29.10;46.40
12229;DHT22;6177;52.402;9.800;2022-08-18T15:13:20;28.90;48.00
12229;DHT22;6177;52.402;9.800;2022-08-18T15:16:05;28.70;47.50
12229;DHT22;6177;52.402;9.800;2022-08-18T15:18:55;28.50;48.10
12229;DHT22;6177;52.402;9.800;2022-08-18T15:21:39;28.30;48.70
12229;DHT22;6177;52.402;9.800;2022-08-18T15:24:42;28.10;49.10
12229;DHT22;6177;52.402;9.800;2022-08-18T15:27:45;27.90;49.80
12229;DHT22;6177;52.402;9.800;2022-08-18T15:30:30;27.80;51.00
12229;DHT22;6177;52.402;9.800;2022-08-18T15:33:15;27.60;51.60
12229;DHT22;6177;52.402;9.800;2022-08-18T15:35:59;27.50;52.20
12229;DHT22;6177;52.402;9.800;2022-08-18T15:38:47;27.50;52.20
12229;DHT22;6177;52.402;9.800;2022-08-18T15:41:37;27.40;52.80
12229;DHT22;6177;52.402;9.800;2022-08-18T15:44:21;27.30;53.70
12229;DHT22;6177;52.402;9.800;2022-08-18T15:47:05;27.30;53.60
12229;DHT22;6177;52.402;9.800;2022-08-18T15:49:50;27.30;53.60
12229;DHT22;6177;52.402;9.800;2022-08-18T15:52:35;27.30;53.70
12229;DHT22;6177;52.402;9.800;2022-08-18T15:55:21;27.30;53.40
12229;DHT22;6177;52.402;9.800;2022-08-18T15:58:05;27.30;53.40
12229;DHT22;6177;52.402;9.800;2022-08-18T16:00:50;27.30;52.90
12229;DHT22;6177;52.402;9.800;2022-08-18T16:03:35;27.30;52.90
12229;DHT22;6177;52.402;9.800;2022-08-18T16:06:21;27.20;53.20
12229;DHT22;6177;52.402;9.800;2022-08-18T16:09:07;27.30;53.20
12229;DHT22;6177;52.402;9.800;2022-08-18T16:11:51;27.30;53.50
12229;DHT22;6177;52.402;9.800;2022-08-18T16:14:37;27.40;53.30
12229;DHT22;6177;52.402;9.800;2022-08-18T16:17:21;27.50;53.40
12229;DHT22;6177;52.402;9.800;2022-08-18T16:20:06;27.60;53.20
12229;DHT22;6177;52.402;9.800;2022-08-18T16:22:51;27.60;52.80
12229;DHT22;6177;52.402;9.800;2022-08-18T16:25:36;27.60;52.50
12229;DHT22;6177;52.402;9.800;2022-08-18T16:28:21;27.60;52.50
12229;DHT22;6177;52.402;9.800;2022-08-18T16:31:05;27.60;52.20
12229;DHT22;6177;52.402;9.800;2022-08-18T16:33:54;27.70;52.30
12229;DHT22;6177;52.402;9.800;2022-08-18T16:36:39;27.70;52.20
12229;DHT22;6177;52.402;9.800;2022-08-18T16:39:23;27.60;52.10
12229;DHT22;6177;52.402;9.800;2022-08-18T16:42:08;27.60;52.10
12229;DHT22;6177;52.402;9.800;2022-08-18T16:44:53;27.50;51.80
12229;DHT22;6177;52.402;9.800;2022-08-18T16:47:39;27.50;52.40
12229;DHT22;6177;52.402;9.800;2022-08-18T16:50:24;27.50;52.10
12229;DHT22;6177;52.402;9.800;2022-08-18T16:53:09;27.40;52.00
12229;DHT22;6177;52.402;9.800;2022-08-18T16:55:53;27.30;52.60
12229;DHT22;6177;52.402;9.800;2022-08-18T16:58:38;27.30;53.30
12229;DHT22;6177;52.402;9.800;2022-08-18T17:01:41;27.30;54.20
12229;DHT22;6177;52.402;9.800;2022-08-18T17:04:44;27.30;54.80
12229;DHT22;6177;52.402;9.800;2022-08-18T17:07:29;27.30;55.20
12229;DHT22;6177;52.402;9.800;2022-08-18T17:10:13;27.20;55.80
12229;DHT22;6177;52.402;9.800;2022-08-18T17:12:57;27.10;56.30
12229;DHT22;6177;52.402;9.800;2022-08-18T17:15:45;27.10;56.90
12229;DHT22;6177;52.402;9.800;2022-08-18T17:18:33;27.00;57.40
12229;DHT22;6177;52.402;9.800;2022-08-18T17:21:19;26.90;57.60
12229;DHT22;6177;52.402;9.800;2022-08-18T17:24:05;26.90;57.70
12229;DHT22;6177;52.402;9.800;2022-08-18T17:32:46;26.80;57.90
12229;DHT22;6177;52.402;9.800;2022-08-18T17:35:34;26.70;57.70
12229;DHT22;6177;52.402;9.800;2022-08-18T17:38:31;26.70;58.00
12229;DHT22;6177;52.402;9.800;2022-08-18T17:41:19;26.60;58.80
12229;DHT22;6177;52.402;9.800;2022-08-18T17:44:04;26.50;60.30
12229;DHT22;6177;52.402;9.800;2022-08-18T17:46:53;26.50;61.10
12229;DHT22;6177;52.402;9.800;2022-08-18T17:49:42;26.40;61.60
12229;DHT22;6177;52.402;9.800;2022-08-18T17:52:46;26.30;62.30
12229;DHT22;6177;52.402;9.800;2022-08-18T17:55:41;26.20;63.50
12229;DHT22;6177;52.402;9.800;2022-08-18T18:01:31;26.00;64.30
12229;DHT22;6177;52.402;9.800;2022-08-18T18:04:18;25.90;64.50
12229;DHT22;6177;52.402;9.800;2022-08-18T18:07:02;25.80;65.90
12229;DHT22;6177;52.402;9.800;2022-08-18T18:09:52;25.70;66.30
12229;DHT22;6177;52.402;9.800;2022-08-18T18:12:37;25.60;65.80
12229;DHT22;6177;52.402;9.800;2022-08-18T18:15:21;25.60;65.60
12229;DHT22;6177;52.402;9.800;2022-08-18T18:26:50;25.30;67.00
12229;DHT22;6177;52.402;9.800;2022-08-18T18:29:35;25.20;67.80
12229;DHT22;6177;52.402;9.800;2022-08-18T18:32:24;25.20;68.70
12229;DHT22;6177;52.402;9.800;2022-08-18T18:35:11;25.10;69.00
12229;DHT22;6177;52.402;9.800;2022-08-18T18:38:03;25.10;68.80
12229;DHT22;6177;52.402;9.800;2022-08-18T18:43:41;25.10;68.30
12229;DHT22;6177;52.402;9.800;2022-08-18T18:46:27;25.10;67.70
12229;DHT22;6177;52.402;9.800;2022-08-18T18:49:25;25.00;67.60
12229;DHT22;6177;52.402;9.800;2022-08-18T18:55:15;24.90;68.30
12229;DHT22;6177;52.402;9.800;2022-08-18T19:00:55;24.70;69.40
12229;DHT22;6177;52.402;9.800;2022-08-18T19:03:43;24.70;70.50
12229;DHT22;6177;52.402;9.800;2022-08-18T19:06:30;24.60;72.10
12229;DHT22;6177;52.402;9.800;2022-08-18T19:09:20;24.50;72.20
12229;DHT22;6177;52.402;9.800;2022-08-18T19:12:11;24.40;73.00
12229;DHT22;6177;52.402;9.800;2022-08-18T19:15:02;24.40;73.10
12229;DHT22;6177;52.402;9.800;2022-08-18T19:17:48;24.30;73.60
12229;DHT22;6177;52.402;9.800;2022-08-18T19:20:41;24.10;74.70
12229;DHT22;6177;52.402;9.800;2022-08-18T19:23:32;24.10;75.20
12229;DHT22;6177;52.402;9.800;2022-08-18T19:26:18;23.90;76.00
12229;DHT22;6177;52.402;9.800;2022-08-18T19:29:15;23.80;77.10
12229;DHT22;6177;52.402;9.800;2022-08-18T19:32:06;23.80;77.90
12229;DHT22;6177;52.402;9.800;2022-08-18T19:34:51;23.70;77.70
12229;DHT22;6177;52.402;9.800;2022-08-18T19:40:41;23.60;78.20
12229;DHT22;6177;52.402;9.800;2022-08-18T19:43:34;23.50;78.30
12229;DHT22;6177;52.402;9.800;2022-08-18T19:51:53;23.30;78.40
12229;DHT22;6177;52.402;9.800;2022-08-18T19:54:55;23.30;78.90
12229;DHT22;6177;52.402;9.800;2022-08-18T20:07:00;23.10;79.20
12229;DHT22;6177;52.402;9.800;2022-08-18T20:12:45;23.00;79.40
12229;DHT22;6177;52.402;9.800;2022-08-18T20:15:32;22.90;79.50
12229;DHT22;6177;52.402;9.800;2022-08-18T20:18:20;22.90;79.80
12229;DHT22;6177;52.402;9.800;2022-08-18T20:36:21;22.70;78.70
12229;DHT22;6177;52.402;9.800;2022-08-18T20:45:15;22.60;78.10
12229;DHT22;6177;52.402;9.800;2022-08-18T20:51:14;22.60;77.70
12229;DHT22;6177;52.402;9.800;2022-08-18T20:57:03;22.50;77.50
12229;DHT22;6177;52.402;9.800;2022-08-18T21:00:08;22.40;77.50
12229;DHT22;6177;52.402;9.800;2022-08-18T21:02:58;22.40;77.30
12229;DHT22;6177;52.402;9.800;2022-08-18T21:05:44;22.40;77.30
12229;DHT22;6177;52.402;9.800;2022-08-18T21:08:31;22.40;76.80
12229;DHT22;6177;52.402;9.800;2022-08-18T21:11:28;22.40;76.70
12229;DHT22;6177;52.402;9.800;2022-08-18T21:14:23;22.40;76.60
12229;DHT22;6177;52.402;9.800;2022-08-18T21:17:12;22.30;76.70
12229;DHT22;6177;52.402;9.800;2022-08-18T21:19:59;22.30;76.60
12229;DHT22;6177;52.402;9.800;2022-08-18T21:22:44;22.30;76.80